Alexandria, Minnesota
Current Conditions -  °F | °C
As of 6:53 AM on Wednesday 22 Oct 2014 (Local Time) from KAXN Reporting Station
Overcast Overcast  
Wind Chill:   Ceiling: 4400
Heat Index:   Visibility: 10mi
Dew Point:   Wind: 22mph
Humidity: 74%   Direction: 150°SSE
Pressure: 30.03"   Gusts: 26mph
Location:  45.89°N, 95.37°W
Report Text: KAXN 221153Z AUTO 15019G23KT 10SM OVC044 08/04 A3003 RMK AO2 LTG DSNT S SLP176 T00830039 10094 20078 58007
Loading
Personal Weather Stations






























Interactive Weather Map New forecast layout! Learn more

10-Day Weather Forecast

Advertisements
Track Severe Weather on mobile